sensor_id;sensor_type;location;lat;lon;timestamp;P1;durP1;ratioP1;P2;durP2;ratioP2
19543;SDS011;9917;51.256;7.152;2023-01-23T00:01:53;19.83;;;12.13;;
19543;SDS011;9917;51.256;7.152;2023-01-23T00:04:19;20.70;;;11.93;;
19543;SDS011;9917;51.256;7.152;2023-01-23T00:06:45;22.20;;;11.93;;
19543;SDS011;9917;51.256;7.152;2023-01-23T00:09:13;24.93;;;12.77;;
19543;SDS011;9917;51.256;7.152;2023-01-23T00:11:39;22.67;;;12.60;;
19543;SDS011;9917;51.256;7.152;2023-01-23T00:14:05;21.90;;;11.90;;
19543;SDS011;9917;51.256;7.152;2023-01-23T00:16:31;25.93;;;13.27;;
19543;SDS011;9917;51.256;7.152;2023-01-23T00:18:57;24.93;;;12.97;;
19543;SDS011;9917;51.256;7.152;2023-01-23T00:21:24;24.23;;;13.03;;
19543;SDS011;9917;51.256;7.152;2023-01-23T00:23:53;22.83;;;12.30;;
19543;SDS011;9917;51.256;7.152;2023-01-23T00:26:21;24.60;;;12.70;;
19543;SDS011;9917;51.256;7.152;2023-01-23T00:28:48;22.37;;;12.63;;
19543;SDS011;9917;51.256;7.152;2023-01-23T00:31:17;23.73;;;12.60;;
19543;SDS011;9917;51.256;7.152;2023-01-23T00:33:45;25.00;;;13.37;;
19543;SDS011;9917;51.256;7.152;2023-01-23T00:36:11;26.97;;;13.90;;
19543;SDS011;9917;51.256;7.152;2023-01-23T00:38:38;23.33;;;13.17;;
19543;SDS011;9917;51.256;7.152;2023-01-23T00:41:04;24.37;;;12.60;;
19543;SDS011;9917;51.256;7.152;2023-01-23T00:43:32;23.33;;;12.90;;
19543;SDS011;9917;51.256;7.152;2023-01-23T00:45:58;23.17;;;12.23;;
19543;SDS011;9917;51.256;7.152;2023-01-23T00:48:24;24.57;;;12.47;;
19543;SDS011;9917;51.256;7.152;2023-01-23T00:50:53;22.80;;;11.93;;
19543;SDS011;9917;51.256;7.152;2023-01-23T00:53:19;23.90;;;12.67;;
19543;SDS011;9917;51.256;7.152;2023-01-23T00:55:45;27.67;;;13.23;;
19543;SDS011;9917;51.256;7.152;2023-01-23T00:58:11;25.77;;;13.27;;
19543;SDS011;9917;51.256;7.152;2023-01-23T01:00:38;25.53;;;13.20;;
19543;SDS011;9917;51.256;7.152;2023-01-23T01:03:05;24.87;;;12.53;;
19543;SDS011;9917;51.256;7.152;2023-01-23T01:05:31;25.90;;;13.83;;
19543;SDS011;9917;51.256;7.152;2023-01-23T01:07:57;27.83;;;14.50;;
19543;SDS011;9917;51.256;7.152;2023-01-23T01:10:23;24.37;;;12.70;;
19543;SDS011;9917;51.256;7.152;2023-01-23T01:12:49;30.40;;;13.33;;
19543;SDS011;9917;51.256;7.152;2023-01-23T01:15:15;26.40;;;13.23;;
19543;SDS011;9917;51.256;7.152;2023-01-23T01:17:43;22.57;;;11.97;;
19543;SDS011;9917;51.256;7.152;2023-01-23T01:20:09;23.03;;;12.63;;
19543;SDS011;9917;51.256;7.152;2023-01-23T01:22:35;25.03;;;12.40;;
19543;SDS011;9917;51.256;7.152;2023-01-23T01:25:02;25.50;;;13.57;;
19543;SDS011;9917;51.256;7.152;2023-01-23T01:27:28;24.57;;;12.67;;
19543;SDS011;9917;51.256;7.152;2023-01-23T01:29:54;26.97;;;13.17;;
19543;SDS011;9917;51.256;7.152;2023-01-23T01:32:20;24.23;;;12.57;;
19543;SDS011;9917;51.256;7.152;2023-01-23T01:34:47;24.37;;;12.10;;
19543;SDS011;9917;51.256;7.152;2023-01-23T01:37:13;25.00;;;13.03;;
19543;SDS011;9917;51.256;7.152;2023-01-23T01:39:39;27.10;;;12.50;;
19543;SDS011;9917;51.256;7.152;2023-01-23T01:42:05;26.77;;;12.83;;
19543;SDS011;9917;51.256;7.152;2023-01-23T01:44:47;25.93;;;13.30;;
19543;SDS011;9917;51.256;7.152;2023-01-23T01:47:16;25.93;;;12.80;;
19543;SDS011;9917;51.256;7.152;2023-01-23T01:49:42;22.37;;;12.53;;
19543;SDS011;9917;51.256;7.152;2023-01-23T01:52:09;23.00;;;12.10;;
19543;SDS011;9917;51.256;7.152;2023-01-23T01:54:38;22.37;;;12.20;;
19543;SDS011;9917;51.256;7.152;2023-01-23T01:57:07;23.53;;;12.83;;
19543;SDS011;9917;51.256;7.152;2023-01-23T01:59:35;24.23;;;12.90;;
19543;SDS011;9917;51.256;7.152;2023-01-23T02:02:06;23.90;;;12.90;;
19543;SDS011;9917;51.256;7.152;2023-01-23T02:04:35;21.90;;;11.53;;
19543;SDS011;9917;51.256;7.152;2023-01-23T02:07:06;25.20;;;12.60;;
19543;SDS011;9917;51.256;7.152;2023-01-23T02:09:38;26.80;;;13.20;;
19543;SDS011;9917;51.256;7.152;2023-01-23T02:12:04;23.03;;;12.80;;
19543;SDS011;9917;51.256;7.152;2023-01-23T02:14:30;23.93;;;13.07;;
19543;SDS011;9917;51.256;7.152;2023-01-23T02:16:56;22.40;;;12.07;;
19543;SDS011;9917;51.256;7.152;2023-01-23T02:19:26;25.20;;;12.70;;
19543;SDS011;9917;51.256;7.152;2023-01-23T02:22:05;23.40;;;12.27;;
19543;SDS011;9917;51.256;7.152;2023-01-23T02:24:38;24.70;;;12.27;;
19543;SDS011;9917;51.256;7.152;2023-01-23T02:27:12;26.23;;;12.77;;
19543;SDS011;9917;51.256;7.152;2023-01-23T02:29:39;23.87;;;11.83;;
19543;SDS011;9917;51.256;7.152;2023-01-23T02:32:08;22.27;;;12.07;;
19543;SDS011;9917;51.256;7.152;2023-01-23T02:34:34;26.73;;;12.17;;
19543;SDS011;9917;51.256;7.152;2023-01-23T02:37:00;24.07;;;12.57;;
19543;SDS011;9917;51.256;7.152;2023-01-23T02:39:26;24.37;;;12.77;;
19543;SDS011;9917;51.256;7.152;2023-01-23T02:41:52;22.70;;;12.47;;
19543;SDS011;9917;51.256;7.152;2023-01-23T02:44:22;23.40;;;12.20;;
19543;SDS011;9917;51.256;7.152;2023-01-23T02:46:49;20.83;;;11.30;;
19543;SDS011;9917;51.256;7.152;2023-01-23T02:49:15;21.80;;;11.10;;
19543;SDS011;9917;51.256;7.152;2023-01-23T02:51:41;20.47;;;11.13;;
19543;SDS011;9917;51.256;7.152;2023-01-23T02:54:07;23.17;;;12.47;;
19543;SDS011;9917;51.256;7.152;2023-01-23T02:56:33;22.27;;;11.83;;
19543;SDS011;9917;51.256;7.152;2023-01-23T02:58:59;20.27;;;11.30;;
19543;SDS011;9917;51.256;7.152;2023-01-23T03:01:26;23.60;;;12.37;;
19543;SDS011;9917;51.256;7.152;2023-01-23T03:03:52;20.37;;;10.97;;
19543;SDS011;9917;51.256;7.152;2023-01-23T03:06:18;22.27;;;12.23;;
19543;SDS011;9917;51.256;7.152;2023-01-23T03:08:44;21.90;;;10.73;;
19543;SDS011;9917;51.256;7.152;2023-01-23T03:11:10;24.27;;;11.37;;
19543;SDS011;9917;51.256;7.152;2023-01-23T03:13:36;20.80;;;11.47;;
19543;SDS011;9917;51.256;7.152;2023-01-23T03:16:02;25.00;;;11.40;;
19543;SDS011;9917;51.256;7.152;2023-01-23T03:18:30;22.03;;;12.13;;
19543;SDS011;9917;51.256;7.152;2023-01-23T03:20:59;23.30;;;12.33;;
19543;SDS011;9917;51.256;7.152;2023-01-23T03:23:25;22.63;;;12.53;;
19543;SDS011;9917;51.256;7.152;2023-01-23T03:25:51;23.27;;;11.53;;
19543;SDS011;9917;51.256;7.152;2023-01-23T03:28:17;20.47;;;11.90;;
19543;SDS011;9917;51.256;7.152;2023-01-23T03:30:44;22.80;;;12.37;;
19543;SDS011;9917;51.256;7.152;2023-01-23T03:33:10;20.80;;;11.63;;
19543;SDS011;9917;51.256;7.152;2023-01-23T03:35:37;18.57;;;10.97;;
19543;SDS011;9917;51.256;7.152;2023-01-23T03:38:03;20.83;;;12.10;;
19543;SDS011;9917;51.256;7.152;2023-01-23T03:40:29;19.90;;;11.23;;
19543;SDS011;9917;51.256;7.152;2023-01-23T03:42:55;21.83;;;11.37;;
19543;SDS011;9917;51.256;7.152;2023-01-23T03:45:21;21.50;;;11.83;;
19543;SDS011;9917;51.256;7.152;2023-01-23T03:47:47;20.20;;;11.90;;
19543;SDS011;9917;51.256;7.152;2023-01-23T03:50:13;19.93;;;11.70;;
19543;SDS011;9917;51.256;7.152;2023-01-23T03:52:41;24.13;;;12.47;;
19543;SDS011;9917;51.256;7.152;2023-01-23T03:55:07;22.40;;;11.70;;
19543;SDS011;9917;51.256;7.152;2023-01-23T03:57:33;21.37;;;12.57;;
19543;SDS011;9917;51.256;7.152;2023-01-23T03:59:59;21.40;;;11.53;;
19543;SDS011;9917;51.256;7.152;2023-01-23T04:02:26;21.20;;;11.87;;
19543;SDS011;9917;51.256;7.152;2023-01-23T04:04:52;23.17;;;12.73;;
19543;SDS011;9917;51.256;7.152;2023-01-23T04:07:18;20.70;;;11.93;;
19543;SDS011;9917;51.256;7.152;2023-01-23T04:09:45;21.90;;;11.47;;
19543;SDS011;9917;51.256;7.152;2023-01-23T04:12:11;24.33;;;12.60;;
19543;SDS011;9917;51.256;7.152;2023-01-23T04:14:37;22.53;;;12.63;;
19543;SDS011;9917;51.256;7.152;2023-01-23T04:17:03;22.93;;;13.10;;
19543;SDS011;9917;51.256;7.152;2023-01-23T04:19:30;23.03;;;12.63;;
19543;SDS011;9917;51.256;7.152;2023-01-23T04:21:56;22.23;;;12.63;;
19543;SDS011;9917;51.256;7.152;2023-01-23T04:24:22;24.43;;;12.80;;
19543;SDS011;9917;51.256;7.152;2023-01-23T04:26:49;25.67;;;13.83;;
19543;SDS011;9917;51.256;7.152;2023-01-23T04:29:16;23.27;;;12.57;;
19543;SDS011;9917;51.256;7.152;2023-01-23T04:31:42;22.27;;;12.27;;
19543;SDS011;9917;51.256;7.152;2023-01-23T04:34:08;24.07;;;13.17;;
19543;SDS011;9917;51.256;7.152;2023-01-23T04:36:34;24.23;;;12.80;;
19543;SDS011;9917;51.256;7.152;2023-01-23T04:39:00;21.93;;;12.63;;
19543;SDS011;9917;51.256;7.152;2023-01-23T04:41:27;22.20;;;12.40;;
19543;SDS011;9917;51.256;7.152;2023-01-23T04:43:55;22.53;;;11.87;;
19543;SDS011;9917;51.256;7.152;2023-01-23T04:46:21;23.37;;;12.60;;
19543;SDS011;9917;51.256;7.152;2023-01-23T04:48:47;23.87;;;13.27;;
19543;SDS011;9917;51.256;7.152;2023-01-23T04:51:13;22.20;;;10.90;;
19543;SDS011;9917;51.256;7.152;2023-01-23T04:53:39;22.10;;;11.33;;
19543;SDS011;9917;51.256;7.152;2023-01-23T04:56:05;19.50;;;10.87;;
19543;SDS011;9917;51.256;7.152;2023-01-23T04:58:31;24.20;;;12.07;;
19543;SDS011;9917;51.256;7.152;2023-01-23T05:01:02;20.37;;;10.57;;
19543;SDS011;9917;51.256;7.152;2023-01-23T05:03:29;22.67;;;11.70;;
19543;SDS011;9917;51.256;7.152;2023-01-23T05:05:55;19.90;;;10.67;;
19543;SDS011;9917;51.256;7.152;2023-01-23T05:08:21;20.13;;;10.77;;
19543;SDS011;9917;51.256;7.152;2023-01-23T05:10:47;18.63;;;9.87;;
19543;SDS011;9917;51.256;7.152;2023-01-23T05:13:13;21.97;;;10.50;;
19543;SDS011;9917;51.256;7.152;2023-01-23T05:15:39;20.37;;;11.50;;
19543;SDS011;9917;51.256;7.152;2023-01-23T05:18:06;22.97;;;11.43;;
19543;SDS011;9917;51.256;7.152;2023-01-23T05:20:32;22.50;;;11.23;;
19543;SDS011;9917;51.256;7.152;2023-01-23T05:22:58;21.03;;;11.10;;
19543;SDS011;9917;51.256;7.152;2023-01-23T05:25:25;22.40;;;11.77;;
19543;SDS011;9917;51.256;7.152;2023-01-23T05:27:52;21.63;;;11.50;;
19543;SDS011;9917;51.256;7.152;2023-01-23T05:30:19;23.37;;;11.10;;
19543;SDS011;9917;51.256;7.152;2023-01-23T05:32:46;26.13;;;12.10;;
19543;SDS011;9917;51.256;7.152;2023-01-23T05:35:14;23.63;;;11.67;;
19543;SDS011;9917;51.256;7.152;2023-01-23T05:37:40;22.90;;;12.13;;
19543;SDS011;9917;51.256;7.152;2023-01-23T05:40:06;23.00;;;11.53;;
19543;SDS011;9917;51.256;7.152;2023-01-23T05:42:35;24.63;;;12.43;;
19543;SDS011;9917;51.256;7.152;2023-01-23T05:45:04;22.73;;;11.97;;
19543;SDS011;9917;51.256;7.152;2023-01-23T05:47:30;25.00;;;12.37;;
19543;SDS011;9917;51.256;7.152;2023-01-23T05:49:56;25.07;;;12.80;;
19543;SDS011;9917;51.256;7.152;2023-01-23T05:52:23;25.43;;;12.50;;
19543;SDS011;9917;51.256;7.152;2023-01-23T05:54:49;25.07;;;12.70;;
19543;SDS011;9917;51.256;7.152;2023-01-23T05:57:15;23.73;;;11.77;;
19543;SDS011;9917;51.256;7.152;2023-01-23T05:59:41;25.67;;;12.30;;
19543;SDS011;9917;51.256;7.152;2023-01-23T06:02:07;22.90;;;12.07;;
19543;SDS011;9917;51.256;7.152;2023-01-23T06:04:33;25.63;;;12.57;;
19543;SDS011;9917;51.256;7.152;2023-01-23T06:06:59;28.17;;;13.40;;
19543;SDS011;9917;51.256;7.152;2023-01-23T06:09:26;25.67;;;12.20;;
19543;SDS011;9917;51.256;7.152;2023-01-23T06:11:52;24.67;;;12.13;;
19543;SDS011;9917;51.256;7.152;2023-01-23T06:14:18;22.17;;;12.23;;
19543;SDS011;9917;51.256;7.152;2023-01-23T06:16:45;23.50;;;11.97;;
19543;SDS011;9917;51.256;7.152;2023-01-23T06:19:11;24.23;;;12.33;;
19543;SDS011;9917;51.256;7.152;2023-01-23T06:21:37;24.97;;;12.80;;
19543;SDS011;9917;51.256;7.152;2023-01-23T06:24:03;23.33;;;12.20;;
19543;SDS011;9917;51.256;7.152;2023-01-23T06:26:30;28.50;;;13.53;;
19543;SDS011;9917;51.256;7.152;2023-01-23T06:28:56;29.93;;;14.10;;
19543;SDS011;9917;51.256;7.152;2023-01-23T06:31:22;24.67;;;12.40;;
19543;SDS011;9917;51.256;7.152;2023-01-23T06:33:49;28.03;;;13.23;;
19543;SDS011;9917;51.256;7.152;2023-01-23T06:36:15;26.90;;;13.50;;
19543;SDS011;9917;51.256;7.152;2023-01-23T06:38:41;33.67;;;15.33;;
19543;SDS011;9917;51.256;7.152;2023-01-23T06:41:07;29.67;;;14.40;;
19543;SDS011;9917;51.256;7.152;2023-01-23T06:43:34;29.13;;;13.80;;
19543;SDS011;9917;51.256;7.152;2023-01-23T06:46:00;27.47;;;14.00;;
19543;SDS011;9917;51.256;7.152;2023-01-23T06:48:26;26.23;;;13.00;;
19543;SDS011;9917;51.256;7.152;2023-01-23T06:50:52;27.70;;;13.80;;
19543;SDS011;9917;51.256;7.152;2023-01-23T06:53:18;26.70;;;12.53;;
19543;SDS011;9917;51.256;7.152;2023-01-23T06:55:44;27.03;;;13.57;;
19543;SDS011;9917;51.256;7.152;2023-01-23T06:58:10;25.50;;;12.80;;
19543;SDS011;9917;51.256;7.152;2023-01-23T07:00:38;23.90;;;12.33;;
19543;SDS011;9917;51.256;7.152;2023-01-23T07:03:03;26.27;;;12.93;;
19543;SDS011;9917;51.256;7.152;2023-01-23T07:05:30;31.27;;;13.93;;
19543;SDS011;9917;51.256;7.152;2023-01-23T07:07:56;31.20;;;13.50;;
19543;SDS011;9917;51.256;7.152;2023-01-23T07:10:22;29.47;;;13.47;;
19543;SDS011;9917;51.256;7.152;2023-01-23T07:12:48;27.63;;;13.13;;
19543;SDS011;9917;51.256;7.152;2023-01-23T07:15:15;23.70;;;12.40;;
19543;SDS011;9917;51.256;7.152;2023-01-23T07:17:42;25.10;;;11.57;;
19543;SDS011;9917;51.256;7.152;2023-01-23T07:20:09;29.27;;;13.43;;
19543;SDS011;9917;51.256;7.152;2023-01-23T07:22:35;25.10;;;11.90;;
19543;SDS011;9917;51.256;7.152;2023-01-23T07:25:01;26.07;;;12.80;;
19543;SDS011;9917;51.256;7.152;2023-01-23T07:27:27;27.27;;;12.47;;
19543;SDS011;9917;51.256;7.152;2023-01-23T07:29:53;29.80;;;12.20;;
19543;SDS011;9917;51.256;7.152;2023-01-23T07:32:19;25.67;;;11.80;;
19543;SDS011;9917;51.256;7.152;2023-01-23T07:34:46;23.63;;;10.60;;
19543;SDS011;9917;51.256;7.152;2023-01-23T07:37:12;26.37;;;11.50;;
19543;SDS011;9917;51.256;7.152;2023-01-23T07:39:38;26.17;;;11.93;;
19543;SDS011;9917;51.256;7.152;2023-01-23T07:42:10;24.10;;;11.63;;
19543;SDS011;9917;51.256;7.152;2023-01-23T07:44:36;25.80;;;12.20;;
19543;SDS011;9917;51.256;7.152;2023-01-23T07:47:02;26.13;;;11.73;;
19543;SDS011;9917;51.256;7.152;2023-01-23T07:49:28;28.43;;;11.53;;
19543;SDS011;9917;51.256;7.152;2023-01-23T07:51:55;25.90;;;12.50;;
19543;SDS011;9917;51.256;7.152;2023-01-23T07:54:21;27.97;;;12.93;;
19543;SDS011;9917;51.256;7.152;2023-01-23T07:56:47;25.33;;;11.90;;
19543;SDS011;9917;51.256;7.152;2023-01-23T07:59:13;27.73;;;13.07;;
19543;SDS011;9917;51.256;7.152;2023-01-23T08:01:39;28.93;;;13.03;;
19543;SDS011;9917;51.256;7.152;2023-01-23T08:04:05;31.50;;;12.77;;
19543;SDS011;9917;51.256;7.152;2023-01-23T08:06:31;28.33;;;12.87;;
19543;SDS011;9917;51.256;7.152;2023-01-23T08:08:59;28.70;;;13.50;;
19543;SDS011;9917;51.256;7.152;2023-01-23T08:11:25;25.97;;;12.27;;
19543;SDS011;9917;51.256;7.152;2023-01-23T08:13:51;30.70;;;13.40;;
19543;SDS011;9917;51.256;7.152;2023-01-23T08:16:17;29.50;;;13.03;;
19543;SDS011;9917;51.256;7.152;2023-01-23T08:18:43;29.63;;;12.93;;
19543;SDS011;9917;51.256;7.152;2023-01-23T08:21:09;29.27;;;13.50;;
19543;SDS011;9917;51.256;7.152;2023-01-23T08:23:35;28.10;;;13.53;;
19543;SDS011;9917;51.256;7.152;2023-01-23T08:26:03;38.60;;;15.23;;
19543;SDS011;9917;51.256;7.152;2023-01-23T08:28:30;33.27;;;13.63;;
19543;SDS011;9917;51.256;7.152;2023-01-23T08:30:58;34.47;;;15.03;;
19543;SDS011;9917;51.256;7.152;2023-01-23T08:33:24;32.40;;;13.60;;
19543;SDS011;9917;51.256;7.152;2023-01-23T08:35:51;31.17;;;13.63;;
19543;SDS011;9917;51.256;7.152;2023-01-23T08:38:17;29.60;;;13.47;;
19543;SDS011;9917;51.256;7.152;2023-01-23T08:40:43;33.47;;;13.90;;
19543;SDS011;9917;51.256;7.152;2023-01-23T08:43:10;26.67;;;12.43;;
19543;SDS011;9917;51.256;7.152;2023-01-23T08:45:36;31.50;;;13.83;;
19543;SDS011;9917;51.256;7.152;2023-01-23T08:48:02;36.07;;;15.97;;
19543;SDS011;9917;51.256;7.152;2023-01-23T08:50:28;34.83;;;13.93;;
19543;SDS011;9917;51.256;7.152;2023-01-23T08:52:54;33.17;;;14.13;;
19543;SDS011;9917;51.256;7.152;2023-01-23T08:55:20;31.70;;;14.03;;
19543;SDS011;9917;51.256;7.152;2023-01-23T08:57:46;39.20;;;16.03;;
19543;SDS011;9917;51.256;7.152;2023-01-23T09:00:14;34.03;;;15.43;;
19543;SDS011;9917;51.256;7.152;2023-01-23T09:02:41;33.27;;;13.93;;
19543;SDS011;9917;51.256;7.152;2023-01-23T09:05:07;31.03;;;14.40;;
19543;SDS011;9917;51.256;7.152;2023-01-23T09:07:33;35.57;;;14.60;;
19543;SDS011;9917;51.256;7.152;2023-01-23T09:09:59;34.77;;;14.13;;
19543;SDS011;9917;51.256;7.152;2023-01-23T09:12:25;32.80;;;13.50;;
19543;SDS011;9917;51.256;7.152;2023-01-23T09:14:51;33.27;;;14.30;;
19543;SDS011;9917;51.256;7.152;2023-01-23T09:17:18;29.90;;;13.53;;
19543;SDS011;9917;51.256;7.152;2023-01-23T09:19:44;32.37;;;14.80;;
19543;SDS011;9917;51.256;7.152;2023-01-23T09:22:10;33.70;;;14.03;;
19543;SDS011;9917;51.256;7.152;2023-01-23T09:24:36;32.30;;;14.57;;
19543;SDS011;9917;51.256;7.152;2023-01-23T09:27:02;31.13;;;12.93;;
19543;SDS011;9917;51.256;7.152;2023-01-23T09:29:28;30.53;;;13.80;;
19543;SDS011;9917;51.256;7.152;2023-01-23T09:31:54;28.80;;;12.60;;
19543;SDS011;9917;51.256;7.152;2023-01-23T09:34:24;30.67;;;13.17;;
19543;SDS011;9917;51.256;7.152;2023-01-23T09:36:51;29.03;;;12.93;;
19543;SDS011;9917;51.256;7.152;2023-01-23T09:39:17;27.37;;;12.83;;
19543;SDS011;9917;51.256;7.152;2023-01-23T09:41:43;26.83;;;12.70;;
19543;SDS011;9917;51.256;7.152;2023-01-23T09:44:10;29.67;;;12.70;;
19543;SDS011;9917;51.256;7.152;2023-01-23T09:46:38;28.97;;;12.83;;
19543;SDS011;9917;51.256;7.152;2023-01-23T09:49:08;28.00;;;12.60;;
19543;SDS011;9917;51.256;7.152;2023-01-23T09:51:42;30.00;;;13.80;;
19543;SDS011;9917;51.256;7.152;2023-01-23T09:54:15;28.43;;;13.57;;
19543;SDS011;9917;51.256;7.152;2023-01-23T09:56:50;26.20;;;12.73;;
19543;SDS011;9917;51.256;7.152;2023-01-23T09:59:23;26.17;;;12.50;;
19543;SDS011;9917;51.256;7.152;2023-01-23T10:01:52;30.43;;;13.80;;
19543;SDS011;9917;51.256;7.152;2023-01-23T10:04:18;28.30;;;13.33;;
19543;SDS011;9917;51.256;7.152;2023-01-23T10:06:59;29.83;;;13.53;;
19543;SDS011;9917;51.256;7.152;2023-01-23T10:09:52;26.30;;;12.40;;
19543;SDS011;9917;51.256;7.152;2023-01-23T10:12:31;23.53;;;12.40;;
19543;SDS011;9917;51.256;7.152;2023-01-23T10:17:56;33.27;;;14.27;;
19543;SDS011;9917;51.256;7.152;2023-01-23T10:20:38;25.00;;;14.37;;
19543;SDS011;9917;51.256;7.152;2023-01-23T10:23:15;23.77;;;12.33;;
19543;SDS011;9917;51.256;7.152;2023-01-23T10:25:51;21.97;;;12.13;;
19543;SDS011;9917;51.256;7.152;2023-01-23T10:28:21;22.93;;;12.97;;
19543;SDS011;9917;51.256;7.152;2023-01-23T10:30:56;22.43;;;11.90;;
19543;SDS011;9917;51.256;7.152;2023-01-23T10:33:28;21.63;;;12.13;;
19543;SDS011;9917;51.256;7.152;2023-01-23T10:36:02;21.67;;;12.63;;
19543;SDS011;9917;51.256;7.152;2023-01-23T10:38:38;24.77;;;13.20;;
19543;SDS011;9917;51.256;7.152;2023-01-23T10:41:10;22.83;;;12.33;;
19543;SDS011;9917;51.256;7.152;2023-01-23T10:43:36;21.47;;;11.10;;
19543;SDS011;9917;51.256;7.152;2023-01-23T10:46:06;25.73;;;12.23;;
19543;SDS011;9917;51.256;7.152;2023-01-23T10:48:40;21.83;;;11.23;;
19543;SDS011;9917;51.256;7.152;2023-01-23T10:51:28;22.93;;;12.00;;
19543;SDS011;9917;51.256;7.152;2023-01-23T10:54:01;22.10;;;12.00;;
19543;SDS011;9917;51.256;7.152;2023-01-23T10:56:35;21.93;;;12.23;;
19543;SDS011;9917;51.256;7.152;2023-01-23T10:59:04;24.40;;;11.83;;
19543;SDS011;9917;51.256;7.152;2023-01-23T11:01:32;22.23;;;12.53;;
19543;SDS011;9917;51.256;7.152;2023-01-23T11:06:42;19.23;;;11.43;;
19543;SDS011;9917;51.256;7.152;2023-01-23T11:09:18;19.87;;;11.20;;
19543;SDS011;9917;51.256;7.152;2023-01-23T11:11:45;23.37;;;11.93;;
19543;SDS011;9917;51.256;7.152;2023-01-23T11:14:24;22.37;;;11.97;;
19543;SDS011;9917;51.256;7.152;2023-01-23T11:16:56;21.53;;;11.40;;
19543;SDS011;9917;51.256;7.152;2023-01-23T11:19:24;20.27;;;11.77;;
19543;SDS011;9917;51.256;7.152;2023-01-23T11:21:51;20.77;;;11.60;;
19543;SDS011;9917;51.256;7.152;2023-01-23T11:24:26;34.77;;;17.00;;
19543;SDS011;9917;51.256;7.152;2023-01-23T11:26:57;31.63;;;15.73;;
19543;SDS011;9917;51.256;7.152;2023-01-23T11:29:23;27.73;;;14.57;;
19543;SDS011;9917;51.256;7.152;2023-01-23T11:31:52;21.83;;;12.20;;
19543;SDS011;9917;51.256;7.152;2023-01-23T11:34:23;19.57;;;11.87;;
19543;SDS011;9917;51.256;7.152;2023-01-23T11:36:53;19.57;;;11.77;;
19543;SDS011;9917;51.256;7.152;2023-01-23T11:39:34;23.93;;;12.90;;
19543;SDS011;9917;51.256;7.152;2023-01-23T11:42:07;18.87;;;11.00;;
19543;SDS011;9917;51.256;7.152;2023-01-23T11:44:34;25.00;;;13.43;;
19543;SDS011;9917;51.256;7.152;2023-01-23T11:47:11;18.93;;;10.70;;
19543;SDS011;9917;51.256;7.152;2023-01-23T11:49:59;20.47;;;10.50;;
19543;SDS011;9917;51.256;7.152;2023-01-23T11:52:37;18.07;;;10.27;;
19543;SDS011;9917;51.256;7.152;2023-01-23T11:55:16;19.67;;;11.23;;
19543;SDS011;9917;51.256;7.152;2023-01-23T11:58:06;18.33;;;10.10;;
19543;SDS011;9917;51.256;7.152;2023-01-23T12:00:43;18.03;;;9.90;;
19543;SDS011;9917;51.256;7.152;2023-01-23T12:06:10;17.10;;;9.63;;
19543;SDS011;9917;51.256;7.152;2023-01-23T12:08:49;22.10;;;11.50;;
19543;SDS011;9917;51.256;7.152;2023-01-23T12:11:23;15.93;;;9.17;;
19543;SDS011;9917;51.256;7.152;2023-01-23T12:13:59;13.40;;;8.63;;
19543;SDS011;9917;51.256;7.152;2023-01-23T12:16:41;17.60;;;9.40;;
19543;SDS011;9917;51.256;7.152;2023-01-23T12:19:20;15.03;;;8.27;;
19543;SDS011;9917;51.256;7.152;2023-01-23T12:21:55;13.67;;;8.10;;
19543;SDS011;9917;51.256;7.152;2023-01-23T12:24:32;13.50;;;7.80;;
19543;SDS011;9917;51.256;7.152;2023-01-23T12:27:14;16.77;;;8.97;;
19543;SDS011;9917;51.256;7.152;2023-01-23T12:29:49;15.13;;;8.70;;
19543;SDS011;9917;51.256;7.152;2023-01-23T12:32:44;14.47;;;8.53;;
19543;SDS011;9917;51.256;7.152;2023-01-23T12:35:25;14.83;;;9.20;;
19543;SDS011;9917;51.256;7.152;2023-01-23T12:38:04;17.10;;;9.50;;
19543;SDS011;9917;51.256;7.152;2023-01-23T12:40:36;14.57;;;8.73;;
19543;SDS011;9917;51.256;7.152;2023-01-23T12:43:07;15.13;;;8.50;;
19543;SDS011;9917;51.256;7.152;2023-01-23T12:45:35;27.70;;;12.40;;
19543;SDS011;9917;51.256;7.152;2023-01-23T12:48:08;18.43;;;9.73;;
19543;SDS011;9917;51.256;7.152;2023-01-23T12:50:40;18.00;;;9.93;;
19543;SDS011;9917;51.256;7.152;2023-01-23T12:53:09;15.93;;;9.60;;
19543;SDS011;9917;51.256;7.152;2023-01-23T12:55:37;15.40;;;8.57;;
19543;SDS011;9917;51.256;7.152;2023-01-23T12:58:08;18.63;;;9.40;;
19543;SDS011;9917;51.256;7.152;2023-01-23T13:00:53;17.23;;;8.73;;
19543;SDS011;9917;51.256;7.152;2023-01-23T13:03:33;16.57;;;9.00;;
19543;SDS011;9917;51.256;7.152;2023-01-23T13:06:17;15.57;;;9.23;;
19543;SDS011;9917;51.256;7.152;2023-01-23T13:08:52;17.07;;;9.30;;
19543;SDS011;9917;51.256;7.152;2023-01-23T13:11:23;15.97;;;9.70;;
19543;SDS011;9917;51.256;7.152;2023-01-23T13:13:53;17.97;;;9.90;;
19543;SDS011;9917;51.256;7.152;2023-01-23T13:16:19;17.50;;;10.10;;
19543;SDS011;9917;51.256;7.152;2023-01-23T13:18:51;16.77;;;9.97;;
19543;SDS011;9917;51.256;7.152;2023-01-23T13:21:18;15.53;;;9.33;;
19543;SDS011;9917;51.256;7.152;2023-01-23T13:23:44;16.83;;;10.00;;
19543;SDS011;9917;51.256;7.152;2023-01-23T13:29:02;21.03;;;11.17;;
19543;SDS011;9917;51.256;7.152;2023-01-23T13:31:32;22.20;;;10.03;;
19543;SDS011;9917;51.256;7.152;2023-01-23T13:34:01;14.50;;;9.73;;
19543;SDS011;9917;51.256;7.152;2023-01-23T13:36:28;15.83;;;8.63;;
19543;SDS011;9917;51.256;7.152;2023-01-23T13:41:49;15.97;;;8.57;;
19543;SDS011;9917;51.256;7.152;2023-01-23T13:44:31;14.83;;;9.17;;
19543;SDS011;9917;51.256;7.152;2023-01-23T13:47:03;17.50;;;9.53;;
19543;SDS011;9917;51.256;7.152;2023-01-23T13:49:41;14.57;;;8.93;;
19543;SDS011;9917;51.256;7.152;2023-01-23T13:52:13;15.40;;;9.07;;
19543;SDS011;9917;51.256;7.152;2023-01-23T13:54:40;17.87;;;9.50;;
19543;SDS011;9917;51.256;7.152;2023-01-23T13:57:06;16.17;;;9.20;;
19543;SDS011;9917;51.256;7.152;2023-01-23T13:59:34;16.67;;;9.40;;
19543;SDS011;9917;51.256;7.152;2023-01-23T14:02:13;14.53;;;8.83;;
19543;SDS011;9917;51.256;7.152;2023-01-23T14:04:51;15.70;;;9.10;;
19543;SDS011;9917;51.256;7.152;2023-01-23T14:07:22;15.80;;;8.40;;
19543;SDS011;9917;51.256;7.152;2023-01-23T14:09:55;15.23;;;8.77;;
19543;SDS011;9917;51.256;7.152;2023-01-23T14:12:27;18.53;;;9.37;;
19543;SDS011;9917;51.256;7.152;2023-01-23T14:14:54;15.20;;;8.73;;
19543;SDS011;9917;51.256;7.152;2023-01-23T14:17:22;18.67;;;10.23;;
19543;SDS011;9917;51.256;7.152;2023-01-23T14:19:51;17.13;;;9.67;;
19543;SDS011;9917;51.256;7.152;2023-01-23T14:22:18;15.20;;;9.10;;
19543;SDS011;9917;51.256;7.152;2023-01-23T14:24:45;17.03;;;9.60;;
19543;SDS011;9917;51.256;7.152;2023-01-23T14:27:16;17.93;;;10.20;;
19543;SDS011;9917;51.256;7.152;2023-01-23T14:29:55;19.43;;;10.07;;
19543;SDS011;9917;51.256;7.152;2023-01-23T14:32:22;15.23;;;9.60;;
19543;SDS011;9917;51.256;7.152;2023-01-23T14:34:48;18.30;;;10.27;;
19543;SDS011;9917;51.256;7.152;2023-01-23T14:37:14;16.47;;;9.60;;
19543;SDS011;9917;51.256;7.152;2023-01-23T14:39:42;17.27;;;9.40;;
19543;SDS011;9917;51.256;7.152;2023-01-23T14:42:12;15.10;;;9.03;;
19543;SDS011;9917;51.256;7.152;2023-01-23T14:44:47;18.73;;;10.70;;
19543;SDS011;9917;51.256;7.152;2023-01-23T14:47:15;16.67;;;10.10;;
19543;SDS011;9917;51.256;7.152;2023-01-23T14:49:46;19.07;;;10.37;;
19543;SDS011;9917;51.256;7.152;2023-01-23T14:52:20;18.73;;;10.73;;
19543;SDS011;9917;51.256;7.152;2023-01-23T14:54:47;18.53;;;10.40;;
19543;SDS011;9917;51.256;7.152;2023-01-23T14:57:15;16.37;;;9.60;;
19543;SDS011;9917;51.256;7.152;2023-01-23T14:59:44;16.57;;;9.67;;